createdAt,value
2022-11-24T00:01:17.960Z,19.25
2022-11-24T00:03:45.929Z,18.58
2022-11-24T00:06:15.277Z,17.95
2022-11-24T00:08:45.861Z,17.77
2022-11-24T00:11:15.220Z,18.38
2022-11-24T00:13:42.331Z,19.17
2022-11-24T00:16:20.127Z,17.77
2022-11-24T00:18:48.523Z,18.75
2022-11-24T00:21:17.230Z,17.50
2022-11-24T00:23:44.496Z,18.05
2022-11-24T00:26:17.260Z,18.17
2022-11-24T00:28:45.169Z,18.25
2022-11-24T00:31:26.335Z,16.85
2022-11-24T00:33:55.442Z,18.35
2022-11-24T00:36:24.105Z,16.65
2022-11-24T00:38:58.961Z,16.63
2022-11-24T00:41:26.843Z,16.45
2022-11-24T00:43:53.729Z,16.13
2022-11-24T00:46:21.616Z,16.73
2022-11-24T00:48:48.195Z,16.33
2022-11-24T00:51:16.170Z,15.88
2022-11-24T00:53:43.266Z,14.65
2022-11-24T00:56:10.925Z,16.10
2022-11-24T00:58:38.186Z,15.85
2022-11-24T01:01:06.025Z,15.35
2022-11-24T01:03:33.648Z,16.13
2022-11-24T01:06:07.794Z,16.50
2022-11-24T01:08:36.114Z,15.95
2022-11-24T01:11:15.959Z,15.63
2022-11-24T01:13:44.362Z,16.15
2022-11-24T01:16:22.634Z,15.38
2022-11-24T01:18:49.670Z,15.30
2022-11-24T01:21:16.918Z,13.73
2022-11-24T01:23:43.878Z,13.73
2022-11-24T01:26:14.682Z,13.73
2022-11-24T01:28:46.581Z,13.13
2022-11-24T01:31:15.532Z,12.95
2022-11-24T01:33:42.331Z,11.93
2022-11-24T01:36:08.905Z,11.75
2022-11-24T01:38:35.622Z,11.05
2022-11-24T01:41:08.170Z,11.40
2022-11-24T01:43:35.074Z,11.75
2022-11-24T01:46:30.159Z,10.75
2022-11-24T01:49:14.751Z,9.55
2022-11-24T01:52:06.092Z,9.85
2022-11-24T01:54:46.353Z,9.63
2022-11-24T01:57:40.407Z,10.27
2022-11-24T02:00:12.849Z,9.20
2022-11-24T02:02:39.695Z,9.30
2022-11-24T02:05:11.842Z,9.73
2022-11-24T02:07:38.641Z,9.75
2022-11-24T02:10:14.139Z,9.90
2022-11-24T02:12:45.852Z,8.38
2022-11-24T02:15:15.298Z,10.23
2022-11-24T02:17:41.839Z,8.73
2022-11-24T02:20:10.016Z,8.40
2022-11-24T02:22:55.938Z,8.38
2022-11-24T02:25:40.813Z,8.25
2022-11-24T02:28:10.899Z,8.50
2022-11-24T02:30:37.697Z,8.63
2022-11-24T02:33:04.296Z,8.82
2022-11-24T02:35:31.982Z,8.90
2022-11-24T02:37:58.481Z,9.25
2022-11-24T02:40:27.897Z,9.63
2022-11-24T02:43:00.482Z,9.48
2022-11-24T02:45:28.331Z,9.73
2022-11-24T02:47:54.946Z,9.63
2022-11-24T02:50:21.591Z,8.85
2022-11-24T02:52:48.099Z,8.68
2022-11-24T02:55:14.703Z,8.82
2022-11-24T02:57:41.597Z,9.45
2022-11-24T03:00:09.102Z,10.60
2022-11-24T03:02:35.678Z,9.85
2022-11-24T03:05:02.422Z,9.38
2022-11-24T03:07:29.095Z,9.05
2022-11-24T03:09:55.638Z,9.88
2022-11-24T03:12:22.246Z,9.68
2022-11-24T03:14:48.756Z,9.68
2022-11-24T03:17:15.346Z,9.23
2022-11-24T03:19:41.944Z,9.80
2022-11-24T03:22:08.475Z,10.43
2022-11-24T03:24:35.327Z,9.10
2022-11-24T03:27:02.037Z,8.52
2022-11-24T03:29:28.567Z,9.00
2022-11-24T03:31:55.070Z,8.15
2022-11-24T03:34:21.708Z,7.78
2022-11-24T03:36:48.254Z,7.97
2022-11-24T03:39:14.774Z,8.13
2022-11-24T03:41:41.475Z,7.60
2022-11-24T03:44:08.023Z,8.13
2022-11-24T03:46:34.677Z,8.55
2022-11-24T03:49:01.478Z,7.72
2022-11-24T03:51:28.044Z,8.27
2022-11-24T03:53:54.568Z,8.23
2022-11-24T03:56:21.201Z,8.20
2022-11-24T03:58:47.743Z,8.02
2022-11-24T04:01:14.412Z,7.85
2022-11-24T04:03:41.138Z,7.63
2022-11-24T04:06:07.765Z,7.55
2022-11-24T04:08:34.280Z,7.70
2022-11-24T04:11:01.207Z,7.10
2022-11-24T04:13:28.801Z,7.60
2022-11-24T04:15:55.363Z,7.88
2022-11-24T04:18:22.361Z,7.32
2022-11-24T04:20:50.561Z,7.05
2022-11-24T04:23:17.853Z,6.70
2022-11-24T04:25:44.798Z,6.97
2022-11-24T04:28:11.349Z,7.43
2022-11-24T04:30:38.670Z,7.55
2022-11-24T04:33:05.340Z,6.97
2022-11-24T04:35:31.841Z,6.95
2022-11-24T04:38:02.434Z,7.13
2022-11-24T04:40:29.571Z,7.38
2022-11-24T04:42:56.417Z,6.75
2022-11-24T04:45:23.945Z,7.22
2022-11-24T04:47:51.134Z,7.05
2022-11-24T04:50:17.814Z,6.82
2022-11-24T04:52:44.409Z,7.65
2022-11-24T04:55:11.430Z,7.93
2022-11-24T04:57:38.071Z,7.07
2022-11-24T05:00:06.026Z,7.13
2022-11-24T05:02:32.725Z,8.13
2022-11-24T05:04:59.233Z,7.38
2022-11-24T05:07:25.901Z,7.80
2022-11-24T05:10:11.425Z,7.90
2022-11-24T05:12:39.581Z,7.70
2022-11-24T05:15:07.458Z,6.82
2022-11-24T05:17:36.520Z,6.60
2022-11-24T05:20:05.596Z,7.28
2022-11-24T05:22:32.187Z,7.28
2022-11-24T05:24:59.015Z,7.65
2022-11-24T05:27:25.568Z,7.50
2022-11-24T05:29:52.092Z,6.90
2022-11-24T05:32:18.687Z,6.65
2022-11-24T05:34:45.236Z,7.18
2022-11-24T05:37:11.865Z,7.00
2022-11-24T05:39:38.609Z,6.93
2022-11-24T05:42:25.534Z,6.70
2022-11-24T05:44:52.868Z,7.40
2022-11-24T05:47:20.033Z,7.70
2022-11-24T05:49:46.858Z,6.65
2022-11-24T05:52:14.002Z,6.22
2022-11-24T05:54:40.497Z,6.55
2022-11-24T05:57:07.034Z,6.85
2022-11-24T05:59:33.960Z,6.47
2022-11-24T06:02:00.591Z,5.78
2022-11-24T06:04:27.271Z,6.38
2022-11-24T06:06:53.848Z,6.80
2022-11-24T06:09:20.569Z,6.78
2022-11-24T06:11:48.501Z,6.63
2022-11-24T06:14:15.147Z,6.63
2022-11-24T06:16:41.816Z,7.20
2022-11-24T06:19:09.845Z,6.63
2022-11-24T06:21:36.757Z,6.95
2022-11-24T06:24:03.562Z,7.18
2022-11-24T06:26:30.057Z,6.35
2022-11-24T06:28:56.659Z,7.20
2022-11-24T06:31:23.534Z,6.68
2022-11-24T06:33:50.187Z,6.25
2022-11-24T06:36:16.792Z,6.07
2022-11-24T06:38:43.351Z,6.88
2022-11-24T06:41:13.809Z,6.80
2022-11-24T06:43:40.748Z,6.72
2022-11-24T06:46:08.023Z,6.95
2022-11-24T06:48:34.684Z,6.32
2022-11-24T06:51:03.154Z,6.47
2022-11-24T06:53:31.110Z,6.63
2022-11-24T06:55:59.569Z,6.72
2022-11-24T06:58:26.478Z,6.82
2022-11-24T07:00:53.136Z,6.57
2022-11-24T07:03:19.798Z,6.82
2022-11-24T07:05:46.523Z,7.10
2022-11-24T07:08:17.582Z,7.30
2022-11-24T07:10:44.678Z,5.80
2022-11-24T07:13:11.526Z,7.28
2022-11-24T07:15:38.034Z,5.43
2022-11-24T07:18:04.723Z,6.82
2022-11-24T07:20:31.643Z,5.82
2022-11-24T07:22:59.119Z,5.40
2022-11-24T07:25:25.885Z,6.15
2022-11-24T07:27:56.922Z,5.90
2022-11-24T07:30:24.257Z,6.18
2022-11-24T07:32:51.243Z,6.32
2022-11-24T07:35:18.105Z,5.68
2022-11-24T07:37:44.594Z,7.30
2022-11-24T07:40:11.609Z,6.60
2022-11-24T07:42:38.353Z,7.20
2022-11-24T07:45:05.198Z,6.43
2022-11-24T07:47:31.718Z,8.88
2022-11-24T07:49:58.464Z,9.27
2022-11-24T07:52:26.743Z,9.45
2022-11-24T07:54:53.393Z,9.50
2022-11-24T07:57:20.076Z,8.48
2022-11-24T07:59:46.566Z,8.10
2022-11-24T08:02:13.425Z,8.18
2022-11-24T08:04:40.109Z,7.82
2022-11-24T08:07:06.808Z,7.10
2022-11-24T08:09:33.434Z,7.32
2022-11-24T08:12:00.161Z,8.07
2022-11-24T08:14:26.663Z,8.25
2022-11-24T08:16:53.227Z,8.18
2022-11-24T08:19:19.955Z,8.35
2022-11-24T08:21:46.436Z,8.43
2022-11-24T08:24:15.254Z,8.50
2022-11-24T08:26:42.652Z,8.23
2022-11-24T08:29:09.798Z,8.07
2022-11-24T08:31:39.085Z,8.07
2022-11-24T08:34:06.579Z,8.98
2022-11-24T08:36:34.220Z,9.70
2022-11-24T08:39:01.225Z,8.07
2022-11-24T08:41:29.180Z,8.10
2022-11-24T08:43:56.247Z,8.38
2022-11-24T08:46:24.033Z,8.68
2022-11-24T08:48:53.796Z,8.90
2022-11-24T08:51:26.272Z,8.02
2022-11-24T08:53:58.355Z,7.10
2022-11-24T08:56:26.158Z,7.82
2022-11-24T08:58:53.726Z,6.95
2022-11-24T09:01:20.667Z,6.80
2022-11-24T09:03:50.986Z,6.28
2022-11-24T09:06:26.994Z,5.78
2022-11-24T09:08:54.561Z,5.85
2022-11-24T09:11:21.506Z,6.20
2022-11-24T09:13:48.395Z,5.97
2022-11-24T09:16:20.291Z,6.07
2022-11-24T09:18:47.871Z,6.00
2022-11-24T09:21:17.807Z,6.32
2022-11-24T09:23:46.171Z,6.63
2022-11-24T09:26:13.996Z,6.50
2022-11-24T09:28:41.556Z,7.03
2022-11-24T09:31:11.652Z,6.00
2022-11-24T09:33:39.115Z,5.63
2022-11-24T09:36:06.805Z,4.70
2022-11-24T09:38:33.896Z,5.47
2022-11-24T09:41:38.264Z,5.65
2022-11-24T09:44:07.693Z,5.43
2022-11-24T09:47:21.954Z,5.47
2022-11-24T09:49:59.295Z,5.03
2022-11-24T09:52:53.898Z,5.65
2022-11-24T09:55:28.707Z,6.53
2022-11-24T09:58:30.188Z,5.63
2022-11-24T10:00:58.216Z,4.97
2022-11-24T10:03:34.608Z,5.07
2022-11-24T10:06:05.506Z,5.72
2022-11-24T10:08:38.198Z,5.63
2022-11-24T10:11:13.730Z,5.65
2022-11-24T10:14:01.571Z,6.00
2022-11-24T10:16:44.039Z,5.68
2022-11-24T10:19:39.402Z,5.93
2022-11-24T10:22:15.352Z,6.32
2022-11-24T10:25:00.907Z,5.85
2022-11-24T10:27:41.797Z,5.28
2022-11-24T10:30:20.614Z,6.07
2022-11-24T10:32:49.779Z,5.68
2022-11-24T10:35:22.593Z,5.80
2022-11-24T10:38:06.408Z,6.30
2022-11-24T10:40:56.524Z,6.00
2022-11-24T10:43:27.182Z,5.63
2022-11-24T10:46:15.165Z,6.20
2022-11-24T10:48:56.484Z,6.13
2022-11-24T10:51:33.076Z,5.97
2022-11-24T10:54:26.013Z,6.18
2022-11-24T10:56:54.347Z,5.88
2022-11-24T10:59:20.888Z,6.25
2022-11-24T11:01:47.562Z,6.18
2022-11-24T11:04:22.513Z,6.90
2022-11-24T11:06:49.019Z,6.00
2022-11-24T11:09:22.803Z,5.30
2022-11-24T11:11:49.555Z,5.60
2022-11-24T11:14:37.881Z,5.55
2022-11-24T11:17:33.089Z,5.15
2022-11-24T11:20:16.999Z,5.45
2022-11-24T11:22:45.369Z,5.18
2022-11-24T11:25:18.425Z,5.63
2022-11-24T11:27:45.078Z,6.53
2022-11-24T11:36:13.618Z,5.75
2022-11-24T11:38:41.171Z,4.95
2022-11-24T11:41:19.326Z,5.72
2022-11-24T11:43:50.194Z,4.90
2022-11-24T11:46:17.243Z,5.07
2022-11-24T11:48:46.908Z,4.55
2022-11-24T11:54:53.347Z,5.13
2022-11-24T11:57:31.631Z,4.05
2022-11-24T12:00:22.468Z,3.67
2022-11-24T12:02:58.503Z,3.63
2022-11-24T12:05:34.967Z,3.85
2022-11-24T12:08:55.965Z,3.55
2022-11-24T12:11:33.204Z,3.00
2022-11-24T12:14:24.509Z,3.10
2022-11-24T12:17:26.617Z,2.83
2022-11-24T12:22:52.058Z,3.08
2022-11-24T12:25:45.501Z,3.63
2022-11-24T12:28:30.520Z,3.55
2022-11-24T12:31:07.489Z,3.75
2022-11-24T12:34:08.349Z,3.65
2022-11-24T12:36:46.105Z,3.70
2022-11-24T12:39:49.740Z,3.90
2022-11-24T12:42:53.172Z,3.50
2022-11-24T12:46:01.766Z,3.22
2022-11-24T12:48:50.383Z,2.92
2022-11-24T12:51:21.084Z,3.80
2022-11-24T12:53:50.870Z,3.22
2022-11-24T12:56:26.018Z,3.63
2022-11-24T12:58:56.886Z,3.50
2022-11-24T13:04:08.157Z,3.10
2022-11-24T13:07:15.528Z,3.80
2022-11-24T13:10:19.502Z,3.15
2022-11-24T13:13:11.783Z,2.90
2022-11-24T13:19:10.198Z,2.78
2022-11-24T13:21:36.896Z,3.80
2022-11-24T13:24:16.605Z,2.90
2022-11-24T13:26:43.262Z,3.28
2022-11-24T13:29:28.613Z,3.25
2022-11-24T13:32:15.589Z,2.85
2022-11-24T13:34:49.971Z,2.95
2022-11-24T13:37:32.135Z,3.08
2022-11-24T13:40:14.700Z,2.90
2022-11-24T13:43:10.201Z,3.28
2022-11-24T13:45:40.154Z,3.13
2022-11-24T13:48:19.187Z,3.00
2022-11-24T13:50:54.740Z,3.03
2022-11-24T13:53:37.739Z,3.72
2022-11-24T13:56:04.422Z,3.35
2022-11-24T13:58:37.209Z,3.38
2022-11-24T14:01:25.993Z,3.42
2022-11-24T14:04:29.210Z,3.75
2022-11-24T14:07:05.574Z,3.60
2022-11-24T14:12:14.584Z,3.05
2022-11-24T14:14:42.054Z,3.20
2022-11-24T14:17:16.565Z,3.97
2022-11-24T14:19:45.275Z,4.03
2022-11-24T14:22:33.052Z,3.72
2022-11-24T14:25:01.432Z,3.38
2022-11-24T14:27:31.607Z,4.00
2022-11-24T14:30:01.016Z,3.70
2022-11-24T14:32:28.305Z,3.65
2022-11-24T14:34:55.626Z,4.00
2022-11-24T14:37:22.956Z,3.33
2022-11-24T14:39:49.716Z,3.80
2022-11-24T14:42:23.105Z,3.70
2022-11-24T14:44:59.133Z,3.42
2022-11-24T14:47:31.394Z,3.53
2022-11-24T14:50:08.983Z,3.30
2022-11-24T14:52:36.044Z,4.80
2022-11-24T14:55:21.289Z,3.83
2022-11-24T14:57:48.925Z,3.55
2022-11-24T15:00:19.884Z,3.35
2022-11-24T15:02:51.985Z,3.50
2022-11-24T15:05:20.851Z,4.18
2022-11-24T15:07:49.858Z,4.20
2022-11-24T15:10:34.017Z,3.72
2022-11-24T15:13:03.925Z,3.70
2022-11-24T15:15:39.223Z,4.28
2022-11-24T15:18:06.927Z,3.95
2022-11-24T15:20:36.954Z,4.15
2022-11-24T15:23:12.531Z,4.45
2022-11-24T15:25:39.284Z,4.13
2022-11-24T15:28:05.827Z,4.53
2022-11-24T15:30:34.755Z,4.90
2022-11-24T15:33:01.483Z,4.80
2022-11-24T15:35:32.711Z,5.40
2022-11-24T15:37:59.465Z,5.70
2022-11-24T15:40:26.083Z,5.97
2022-11-24T15:42:54.799Z,5.30
2022-11-24T15:45:24.100Z,5.30
2022-11-24T15:47:50.830Z,5.25
2022-11-24T15:50:17.911Z,5.53
2022-11-24T15:52:46.110Z,4.57
2022-11-24T15:55:19.055Z,4.82
2022-11-24T15:57:45.945Z,4.93
2022-11-24T16:00:21.549Z,5.50
2022-11-24T16:02:48.378Z,5.03
2022-11-24T16:05:16.412Z,4.93
2022-11-24T16:07:43.813Z,5.40
2022-11-24T16:10:33.640Z,4.97
2022-11-24T16:13:00.533Z,5.38
2022-11-24T16:15:27.101Z,5.45
2022-11-24T16:17:53.733Z,5.68
2022-11-24T16:20:20.444Z,5.68
2022-11-24T16:22:47.051Z,5.13
2022-11-24T16:25:14.373Z,4.90
2022-11-24T16:27:42.269Z,4.82
2022-11-24T16:30:11.247Z,5.20
2022-11-24T16:32:37.877Z,4.90
2022-11-24T16:35:06.101Z,5.65
2022-11-24T16:37:33.380Z,5.68
2022-11-24T16:40:01.620Z,6.57
2022-11-24T16:42:28.813Z,5.95
2022-11-24T16:44:55.336Z,5.75
2022-11-24T16:47:21.928Z,6.55
2022-11-24T16:49:48.652Z,6.03
2022-11-24T16:52:16.185Z,5.22
2022-11-24T16:54:42.768Z,6.07
2022-11-24T16:57:14.918Z,5.63
2022-11-24T16:59:43.362Z,5.53
2022-11-24T17:02:12.406Z,5.57
2022-11-24T17:04:39.290Z,6.13
2022-11-24T17:07:05.917Z,6.93
2022-11-24T17:09:37.343Z,6.93
2022-11-24T17:12:06.876Z,5.88
2022-11-24T17:14:33.702Z,6.07
2022-11-24T17:17:00.581Z,6.38
2022-11-24T17:19:27.166Z,6.30
2022-11-24T17:21:54.681Z,6.53
2022-11-24T17:24:21.584Z,8.57
2022-11-24T17:26:51.364Z,7.97
2022-11-24T17:29:18.592Z,7.72
2022-11-24T17:31:45.902Z,6.85
2022-11-24T17:34:12.641Z,7.57
2022-11-24T17:36:44.893Z,7.25
2022-11-24T17:39:12.021Z,6.78
2022-11-24T17:41:38.619Z,7.10
2022-11-24T17:44:07.901Z,6.53
2022-11-24T17:46:34.764Z,7.20
2022-11-24T17:49:01.288Z,8.15
2022-11-24T17:51:27.955Z,7.65
2022-11-24T17:53:55.695Z,7.22
2022-11-24T17:56:27.178Z,7.03
2022-11-24T17:58:56.072Z,7.40
2022-11-24T18:01:23.389Z,10.05
2022-11-24T18:03:53.392Z,8.23
2022-11-24T18:06:20.780Z,7.00
2022-11-24T18:08:47.996Z,8.32
2022-11-24T18:11:24.637Z,8.70
2022-11-24T18:14:00.623Z,8.38
2022-11-24T18:16:30.172Z,7.60
2022-11-24T18:19:14.624Z,8.73
2022-11-24T18:21:42.289Z,8.80
2022-11-24T18:24:10.401Z,8.45
2022-11-24T18:26:38.121Z,9.00
2022-11-24T18:29:04.909Z,8.00
2022-11-24T18:31:32.448Z,8.52
2022-11-24T18:33:59.385Z,8.57
2022-11-24T18:36:30.304Z,8.73
2022-11-24T18:39:00.484Z,10.50
2022-11-24T18:41:27.201Z,8.95
2022-11-24T18:43:53.940Z,9.88
2022-11-24T18:46:20.748Z,10.05
2022-11-24T18:48:47.457Z,9.57
2022-11-24T18:51:17.707Z,10.23
2022-11-24T18:53:46.221Z,10.27
2022-11-24T18:56:15.492Z,9.88
2022-11-24T18:58:42.706Z,11.55
2022-11-24T19:01:24.053Z,11.68
2022-11-24T19:03:53.393Z,11.25
2022-11-24T19:06:22.036Z,11.25
2022-11-24T19:08:51.864Z,12.10
2022-11-24T19:11:28.303Z,10.50
2022-11-24T19:13:56.118Z,11.48
2022-11-24T19:16:23.464Z,11.35
2022-11-24T19:18:54.055Z,11.15
2022-11-24T19:21:22.383Z,10.65
2022-11-24T19:23:49.882Z,10.32
2022-11-24T19:26:16.594Z,11.15
2022-11-24T19:28:43.363Z,15.73
2022-11-24T19:31:12.865Z,13.63
2022-11-24T19:33:40.610Z,11.32
2022-11-24T19:36:11.301Z,11.98
2022-11-24T19:38:38.016Z,12.75
2022-11-24T19:41:06.959Z,12.38
2022-11-24T19:43:34.053Z,11.48
2022-11-24T19:46:06.915Z,12.75
2022-11-24T19:48:36.037Z,13.93
2022-11-24T19:51:07.752Z,12.93
2022-11-24T19:53:35.623Z,13.88
2022-11-24T19:56:11.068Z,12.80
2022-11-24T19:58:39.007Z,13.25
2022-11-24T20:01:17.238Z,14.15
2022-11-24T20:03:45.280Z,13.25
2022-11-24T20:06:13.478Z,12.57
2022-11-24T20:08:41.427Z,13.45
2022-11-24T20:11:16.163Z,14.02
2022-11-24T20:13:44.577Z,13.45
2022-11-24T20:16:13.430Z,13.50
2022-11-24T20:18:44.402Z,12.65
2022-11-24T20:21:16.319Z,14.45
2022-11-24T20:23:43.903Z,13.07
2022-11-24T20:26:16.445Z,13.50
2022-11-24T20:28:43.528Z,13.25
2022-11-24T20:31:13.891Z,13.32
2022-11-24T20:33:41.201Z,17.13
2022-11-24T20:36:10.430Z,16.52
2022-11-24T20:38:43.860Z,14.18
2022-11-24T20:41:13.669Z,14.63
2022-11-24T20:43:41.638Z,13.95
2022-11-24T20:46:12.569Z,13.65
2022-11-24T20:48:39.519Z,12.82
2022-11-24T20:51:08.620Z,12.32
2022-11-24T20:53:35.996Z,12.98
2022-11-24T20:56:06.175Z,13.77
2022-11-24T20:58:34.457Z,13.15
2022-11-24T21:01:13.070Z,12.98
2022-11-24T21:03:43.357Z,14.00
2022-11-24T21:06:14.096Z,13.68
2022-11-24T21:08:42.082Z,13.73
2022-11-24T21:11:13.646Z,14.38
2022-11-24T21:13:42.752Z,15.15
2022-11-24T21:16:26.760Z,15.80
2022-11-24T21:18:57.940Z,14.23
2022-11-24T21:21:25.558Z,14.57
2022-11-24T21:23:52.088Z,15.00
2022-11-24T21:26:19.571Z,14.80
2022-11-24T21:28:47.491Z,14.98
2022-11-24T21:31:17.813Z,15.38
2022-11-24T21:33:47.195Z,14.70
2022-11-24T21:36:15.905Z,16.25
2022-11-24T21:38:42.828Z,15.15
2022-11-24T21:41:11.162Z,14.95
2022-11-24T21:43:38.633Z,14.68
2022-11-24T21:46:07.962Z,14.85
2022-11-24T21:48:36.759Z,15.57
2022-11-24T21:51:06.696Z,15.23
2022-11-24T21:53:35.712Z,15.38
2022-11-24T21:56:05.770Z,15.15
2022-11-24T21:58:33.723Z,14.73
2022-11-24T22:01:10.876Z,13.27
2022-11-24T22:03:37.473Z,15.00
2022-11-24T22:06:04.291Z,13.95
2022-11-24T22:08:31.797Z,14.40
2022-11-24T22:11:15.055Z,13.38
2022-11-24T22:13:43.005Z,13.73
2022-11-24T22:16:12.584Z,14.20
2022-11-24T22:18:41.543Z,14.60
2022-11-24T22:21:11.800Z,12.80
2022-11-24T22:23:38.611Z,13.35
2022-11-24T22:26:07.027Z,10.45
2022-11-24T22:28:35.554Z,12.02
2022-11-24T22:31:16.567Z,11.82
2022-11-24T22:33:46.491Z,12.85
2022-11-24T22:36:14.098Z,13.73
2022-11-24T22:38:42.304Z,11.98
2022-11-24T22:41:15.465Z,12.95
2022-11-24T22:43:43.068Z,12.90
2022-11-24T22:46:11.277Z,12.07
2022-11-24T22:48:38.620Z,12.75
2022-11-24T22:51:07.321Z,11.50
2022-11-24T22:53:34.233Z,10.90
2022-11-24T22:56:02.852Z,11.07
2022-11-24T22:58:30.906Z,10.15
2022-11-24T23:00:57.479Z,11.60
2022-11-24T23:03:24.192Z,11.73
2022-11-24T23:05:50.764Z,11.65
2022-11-24T23:08:17.242Z,10.68
2022-11-24T23:10:43.920Z,11.82
2022-11-24T23:13:10.399Z,11.35
2022-11-24T23:15:36.892Z,11.40
2022-11-24T23:18:03.861Z,12.27
2022-11-24T23:20:30.349Z,11.18
2022-11-24T23:22:57.245Z,10.80
2022-11-24T23:25:23.964Z,10.50
2022-11-24T23:27:50.517Z,10.40
2022-11-24T23:30:17.060Z,11.48
2022-11-24T23:32:43.841Z,11.75
2022-11-24T23:35:13.750Z,11.40
2022-11-24T23:38:05.926Z,11.00
2022-11-24T23:40:28.545Z,10.70
2022-11-24T23:42:55.105Z,10.60
2022-11-24T23:45:21.576Z,10.90
2022-11-24T23:47:48.213Z,10.88
2022-11-24T23:50:14.837Z,10.25
2022-11-24T23:52:41.312Z,10.63
